Time;durP1;ratioP1;P1;durP2;ratioP2;P2;SDS_P1;SDS_P2;PMS_P1;PMS_P2;Temp;Humidity;BMP_temperature;BMP_pressure;BME280_temperature;BME280_humidity;BME280_pressure;Samples;Min_cycle;Max_cycle;Signal;HPM_P1;HPM_P2
2024/02/12 00:00:27;;;;;;;;;;;5.70;99.90;;;;;;5032833;28;19932;-63
2024/02/12 00:02:58;;;;;;;;;;;5.70;99.90;;;;;;5031354;28;19928;-63
2024/02/12 00:05:25;;;;;;;;;;;5.70;99.90;;;;;;5031827;28;20439;-63
2024/02/12 00:07:57;;;;;;;;;;;5.70;99.90;;;;;;4989310;28;19928;-63
2024/02/12 00:10:23;;;;;;;;;;;5.70;99.90;;;;;;5023993;28;20024;-63
2024/02/12 00:12:55;;;;;;;;;;;5.70;99.90;;;;;;5029353;28;20012;-63
2024/02/12 00:15:27;;;;;;;;;;;5.70;99.90;;;;;;5032176;28;20484;-63
2024/02/12 00:17:59;;;;;;;;;;;5.70;99.90;;;;;;5032382;28;19925;-64
2024/02/12 00:20:29;;;;;;;;;;;5.70;99.90;;;;;;5032582;28;19927;-63
2024/02/12 00:23:01;;;;;;;;;;;5.80;99.90;;;;;;5012199;28;19959;-63
2024/02/12 00:25:33;;;;;;;;;;;5.80;99.90;;;;;;5029736;28;20032;-63
2024/02/12 00:28:07;;;;;;;;;;;5.80;99.90;;;;;;5032330;28;20011;-63
2024/02/12 00:30:39;;;;;;;;;;;5.90;99.90;;;;;;5032170;28;19940;-63
2024/02/12 00:33:11;;;;;;;;;;;5.90;99.90;;;;;;5030946;28;20389;-63
2024/02/12 00:35:43;;;;;;;;;;;5.90;99.90;;;;;;5031578;28;19931;-64
2024/02/12 00:38:14;;;;;;;;;;;5.90;99.90;;;;;;5030417;28;19944;-64
2024/02/12 00:40:46;;;;;;;;;;;5.90;99.90;;;;;;5032193;28;20027;-64
2024/02/12 00:43:18;;;;;;;;;;;5.90;99.90;;;;;;5015325;28;19921;-64
2024/02/12 00:45:50;;;;;;;;;;;5.90;99.90;;;;;;5031672;28;20399;-63
2024/02/12 00:48:22;;;;;;;;;;;5.90;99.90;;;;;;5034333;28;19925;-64
2024/02/12 00:50:54;;;;;;;;;;;5.90;99.90;;;;;;5033206;28;19956;-65
2024/02/12 00:53:26;;;;;;;;;;;5.90;99.90;;;;;;5030115;28;19925;-63
2024/02/12 00:55:58;;;;;;;;;;;5.90;99.90;;;;;;4981113;28;19931;-63
2024/02/12 00:58:31;;;;;;;;;;;5.90;99.90;;;;;;5029569;28;19960;-63
2024/02/12 01:01:04;;;;;;;;;;;5.90;99.90;;;;;;5029933;28;19967;-63
2024/02/12 01:03:32;;;;;;;;;;;5.90;99.90;;;;;;5030733;28;19932;-62
2024/02/12 01:05:58;;;;;;;;;;;5.90;99.90;;;;;;5030868;28;20159;-63
2024/02/12 01:08:30;;;;;;;;;;;5.90;99.90;;;;;;5031614;28;20543;-63
2024/02/12 01:11:02;;;;;;;;;;;5.90;99.90;;;;;;5031689;28;19948;-63
2024/02/12 01:13:34;;;;;;;;;;;6.00;99.90;;;;;;5028448;28;19921;-63
2024/02/12 01:16:06;;;;;;;;;;;6.00;99.90;;;;;;5031270;28;20332;-63
2024/02/12 01:18:39;;;;;;;;;;;6.00;99.90;;;;;;5013351;28;19921;-63
2024/02/12 01:21:11;;;;;;;;;;;6.00;99.90;;;;;;5031384;28;19928;-63
2024/02/12 01:23:44;;;;;;;;;;;6.00;99.90;;;;;;5012560;28;20555;-63
2024/02/12 01:26:16;;;;;;;;;;;6.00;99.90;;;;;;5009113;28;19925;-63
2024/02/12 01:28:47;;;;;;;;;;;6.00;99.90;;;;;;5029406;28;19928;-63
2024/02/12 01:31:19;;;;;;;;;;;6.00;99.90;;;;;;5029967;28;19975;-63
2024/02/12 01:33:52;;;;;;;;;;;6.00;99.90;;;;;;5011104;28;20312;-63
2024/02/12 01:36:24;;;;;;;;;;;6.00;99.90;;;;;;5030622;28;19940;-63
2024/02/12 01:38:56;;;;;;;;;;;6.00;99.90;;;;;;5031140;28;20035;-63
2024/02/12 01:41:28;;;;;;;;;;;6.10;99.90;;;;;;5030687;28;19927;-63
2024/02/12 01:44:00;;;;;;;;;;;6.10;99.90;;;;;;5030681;28;19925;-63
2024/02/12 01:46:32;;;;;;;;;;;6.10;99.90;;;;;;5030755;28;19921;-63
2024/02/12 01:49:03;;;;;;;;;;;6.10;99.90;;;;;;5012492;28;19936;-63
2024/02/12 01:51:30;;;;;;;;;;;6.10;99.90;;;;;;5029690;28;19921;-63
2024/02/12 01:54:02;;;;;;;;;;;6.20;99.90;;;;;;5030388;28;19943;-63
2024/02/12 01:56:35;;;;;;;;;;;6.20;99.90;;;;;;5010285;28;19932;-63
2024/02/12 01:59:10;;;;;;;;;;;6.30;99.90;;;;;;5029028;28;20385;-63
2024/02/12 02:01:43;;;;;;;;;;;6.20;99.90;;;;;;5029617;28;20004;-63
2024/02/12 02:04:16;;;;;;;;;;;6.20;99.90;;;;;;5030780;28;19964;-63
2024/02/12 02:06:52;;;;;;;;;;;6.20;99.90;;;;;;5030932;28;19966;-63
2024/02/12 02:09:24;;;;;;;;;;;6.20;99.90;;;;;;5030378;28;19975;-63
2024/02/12 02:11:51;;;;;;;;;;;6.20;99.90;;;;;;5013176;28;19921;-63
2024/02/12 02:14:23;;;;;;;;;;;6.20;99.90;;;;;;5030254;28;19921;-63
2024/02/12 02:16:55;;;;;;;;;;;6.20;99.90;;;;;;5030295;28;20411;-63
2024/02/12 02:19:23;;;;;;;;;;;6.30;99.90;;;;;;5029545;28;19928;-63
2024/02/12 02:21:55;;;;;;;;;;;6.20;99.90;;;;;;5030674;28;19948;-63
2024/02/12 02:24:27;;;;;;;;;;;6.20;99.90;;;;;;5009853;28;20403;-63
2024/02/12 02:26:58;;;;;;;;;;;6.20;99.90;;;;;;5025958;28;20019;-63
2024/02/12 02:29:25;;;;;;;;;;;6.30;99.90;;;;;;5030602;28;19931;-63
2024/02/12 02:31:57;;;;;;;;;;;6.30;99.90;;;;;;5030417;28;19932;-63
2024/02/12 02:34:29;;;;;;;;;;;6.30;99.90;;;;;;5028039;28;19921;-63
2024/02/12 02:37:03;;;;;;;;;;;6.30;99.90;;;;;;5006964;28;20059;-63
2024/02/12 02:39:30;;;;;;;;;;;6.30;99.90;;;;;;5030369;28;19925;-62
2024/02/12 02:42:03;;;;;;;;;;;6.20;99.90;;;;;;5030359;28;19928;-63
2024/02/12 02:44:35;;;;;;;;;;;6.20;99.90;;;;;;5017919;28;19927;-63
2024/02/12 02:47:10;;;;;;;;;;;6.10;99.90;;;;;;5025501;28;19925;-63
2024/02/12 02:49:41;;;;;;;;;;;6.10;99.90;;;;;;5028682;28;19925;-63
2024/02/12 02:52:13;;;;;;;;;;;6.10;99.90;;;;;;5030332;28;19928;-63
2024/02/12 02:54:47;;;;;;;;;;;6.00;99.90;;;;;;5030125;28;19924;-63
2024/02/12 02:57:13;;;;;;;;;;;6.00;99.90;;;;;;5030394;28;20429;-63
2024/02/12 02:59:46;;;;;;;;;;;6.00;99.90;;;;;;5026897;28;20309;-63
2024/02/12 03:02:18;;;;;;;;;;;6.00;99.90;;;;;;5019334;28;19924;-63
2024/02/12 03:04:45;;;;;;;;;;;6.00;99.90;;;;;;5035048;28;20058;-63
2024/02/12 03:07:12;;;;;;;;;;;5.90;99.90;;;;;;5016776;28;20407;-63
2024/02/12 03:09:38;;;;;;;;;;;5.90;99.90;;;;;;5008366;28;19924;-63
2024/02/12 03:12:10;;;;;;;;;;;6.00;99.90;;;;;;5034405;28;20316;-63
2024/02/12 03:14:42;;;;;;;;;;;6.00;99.90;;;;;;5033657;28;20019;-62
2024/02/12 03:17:14;;;;;;;;;;;6.00;99.90;;;;;;5013781;28;19921;-63
2024/02/12 03:19:47;;;;;;;;;;;6.10;99.90;;;;;;5034267;28;20381;-63
2024/02/12 03:22:18;;;;;;;;;;;6.00;99.90;;;;;;5000826;28;20366;-63
2024/02/12 03:24:50;;;;;;;;;;;6.00;99.90;;;;;;5034500;28;19972;-63
2024/02/12 03:27:17;;;;;;;;;;;6.00;99.90;;;;;;5034037;28;19925;-63
2024/02/12 03:29:49;;;;;;;;;;;6.00;99.90;;;;;;5026808;28;19925;-63
2024/02/12 03:32:21;;;;;;;;;;;6.00;99.90;;;;;;5014930;28;20357;-63
2024/02/12 03:34:53;;;;;;;;;;;5.90;99.90;;;;;;5009851;28;19926;-63
2024/02/12 03:37:25;;;;;;;;;;;5.90;99.90;;;;;;5032060;28;20400;-63
2024/02/12 03:39:57;;;;;;;;;;;5.80;99.90;;;;;;5031528;28;19921;-63
2024/02/12 03:42:29;;;;;;;;;;;5.70;99.90;;;;;;5033765;28;20452;-63
2024/02/12 03:45:00;;;;;;;;;;;5.60;99.90;;;;;;5033409;28;19925;-63
2024/02/12 03:47:28;;;;;;;;;;;5.60;99.90;;;;;;5033426;28;19921;-63
2024/02/12 04:01:17;;;;;;;;;;;5.50;99.90;;;;;;5033401;28;19928;-63
2024/02/12 04:03:49;;;;;;;;;;;5.50;99.90;;;;;;5010128;28;19921;-63
2024/02/12 04:06:16;;;;;;;;;;;5.50;99.90;;;;;;5030484;28;20015;-63
2024/02/12 04:08:49;;;;;;;;;;;5.50;99.90;;;;;;5033289;28;19925;-63
2024/02/12 04:11:23;;;;;;;;;;;5.50;99.90;;;;;;5030197;28;19960;-63
2024/02/12 04:13:56;;;;;;;;;;;5.50;99.90;;;;;;5032958;28;19927;-63
2024/02/12 04:16:28;;;;;;;;;;;5.60;99.90;;;;;;5032875;28;19975;-63
2024/02/12 04:19:00;;;;;;;;;;;5.60;99.90;;;;;;5032953;28;19925;-63
2024/02/12 04:21:32;;;;;;;;;;;5.60;99.90;;;;;;5015474;28;19956;-63
2024/02/12 04:24:04;;;;;;;;;;;5.60;99.90;;;;;;5031405;28;19921;-63
2024/02/12 04:26:31;;;;;;;;;;;5.60;99.90;;;;;;5032614;28;19931;-63
2024/02/12 04:29:07;;;;;;;;;;;5.60;99.90;;;;;;5025397;28;19921;-63
2024/02/12 04:31:39;;;;;;;;;;;5.70;99.90;;;;;;5014842;28;20019;-63
2024/02/12 04:34:09;;;;;;;;;;;5.70;99.90;;;;;;5032429;28;19931;-62
2024/02/12 04:36:41;;;;;;;;;;;5.70;99.90;;;;;;5031718;28;19925;-63
2024/02/12 04:39:14;;;;;;;;;;;5.70;99.90;;;;;;5032714;28;19965;-62
2024/02/12 04:41:42;;;;;;;;;;;5.80;99.90;;;;;;5032836;28;20399;-63
2024/02/12 04:44:14;;;;;;;;;;;5.80;99.90;;;;;;5015734;28;19921;-63
2024/02/12 04:46:46;;;;;;;;;;;5.70;99.90;;;;;;5031041;28;19932;-63
2024/02/12 04:49:19;;;;;;;;;;;5.70;99.90;;;;;;5032043;28;19975;-63
2024/02/12 04:51:52;;;;;;;;;;;5.70;99.90;;;;;;5031415;28;20029;-63
2024/02/12 04:54:25;;;;;;;;;;;5.70;99.90;;;;;;5031715;28;20484;-63
2024/02/12 04:56:56;;;;;;;;;;;5.70;99.90;;;;;;5031099;28;19924;-63
2024/02/12 04:59:29;;;;;;;;;;;5.70;99.90;;;;;;5030482;28;19948;-63
2024/02/12 05:02:01;;;;;;;;;;;5.70;99.90;;;;;;5032326;28;19963;-63
2024/02/12 05:04:34;;;;;;;;;;;5.70;99.90;;;;;;4997052;28;20309;-63
2024/02/12 05:07:06;;;;;;;;;;;5.60;99.90;;;;;;5031995;28;19937;-63
2024/02/12 05:09:33;;;;;;;;;;;5.60;99.90;;;;;;5032052;28;19960;-63
2024/02/12 05:12:05;;;;;;;;;;;5.60;99.90;;;;;;5032076;28;19968;-63
2024/02/12 05:14:37;;;;;;;;;;;5.60;99.90;;;;;;5035042;28;19979;-63
2024/02/12 05:17:11;;;;;;;;;;;5.60;99.90;;;;;;5006583;28;20270;-63
2024/02/12 05:22:34;;;;;;;;;;;5.70;99.90;;;;;;5031823;28;19924;-63
2024/02/12 05:25:07;;;;;;;;;;;5.70;99.90;;;;;;5009158;28;20320;-63
2024/02/12 05:27:39;;;;;;;;;;;5.70;99.90;;;;;;5010827;28;19925;-63
2024/02/12 05:30:11;;;;;;;;;;;5.70;99.90;;;;;;5031845;28;19992;-63
2024/02/12 05:32:38;;;;;;;;;;;5.70;99.90;;;;;;5031760;28;20016;-63
2024/02/12 05:35:05;;;;;;;;;;;5.70;99.90;;;;;;5029797;28;20027;-63
2024/02/12 05:37:37;;;;;;;;;;;5.80;99.90;;;;;;5014572;28;19921;-63
2024/02/12 05:40:09;;;;;;;;;;;5.80;99.90;;;;;;5031530;28;19921;-63
2024/02/12 05:42:41;;;;;;;;;;;5.80;99.90;;;;;;5031483;28;19933;-63
2024/02/12 05:45:14;;;;;;;;;;;5.80;99.90;;;;;;5031309;28;20274;-63
2024/02/12 05:47:46;;;;;;;;;;;5.80;99.90;;;;;;5030464;28;19964;-63
2024/02/12 05:50:12;;;;;;;;;;;5.90;99.90;;;;;;5031438;28;20452;-63
2024/02/12 05:52:46;;;;;;;;;;;5.80;99.90;;;;;;5031400;28;19960;-63
2024/02/12 05:55:12;;;;;;;;;;;5.80;99.90;;;;;;5030488;28;19927;-63
2024/02/12 05:57:44;;;;;;;;;;;5.90;99.90;;;;;;5029598;28;20317;-63
2024/02/12 06:00:16;;;;;;;;;;;5.90;99.90;;;;;;5014278;28;20408;-63
2024/02/12 06:02:47;;;;;;;;;;;5.90;99.90;;;;;;5028548;28;19921;-63
2024/02/12 06:05:19;;;;;;;;;;;5.90;99.90;;;;;;5030986;28;19925;-63
2024/02/12 06:07:46;;;;;;;;;;;5.90;99.90;;;;;;5031158;28;19921;-63
2024/02/12 06:10:18;;;;;;;;;;;5.90;99.90;;;;;;5029430;28;20036;-63
2024/02/12 06:12:50;;;;;;;;;;;5.90;99.90;;;;;;5030935;28;19921;-63
2024/02/12 06:15:22;;;;;;;;;;;5.90;99.90;;;;;;5030840;28;19929;-63
2024/02/12 06:17:54;;;;;;;;;;;5.80;99.90;;;;;;5002014;28;19921;-63
2024/02/12 06:20:25;;;;;;;;;;;5.80;99.90;;;;;;5029887;28;19925;-63
2024/02/12 06:22:57;;;;;;;;;;;5.80;99.90;;;;;;5030714;28;20449;-63
2024/02/12 06:25:29;;;;;;;;;;;5.80;99.90;;;;;;5014010;28;20024;-62
2024/02/12 06:28:04;;;;;;;;;;;5.80;99.90;;;;;;5031036;28;20300;-63
2024/02/12 06:30:37;;;;;;;;;;;5.70;99.90;;;;;;5029131;28;20389;-63
2024/02/12 06:33:08;;;;;;;;;;;5.70;99.90;;;;;;5008418;28;19921;-63
2024/02/12 06:35:40;;;;;;;;;;;5.70;99.90;;;;;;5028623;28;20277;-63
2024/02/12 06:38:07;;;;;;;;;;;5.70;99.90;;;;;;5035018;28;19925;-63
2024/02/12 06:40:39;;;;;;;;;;;5.70;99.90;;;;;;5033549;28;19929;-63
2024/02/12 06:43:11;;;;;;;;;;;5.70;99.90;;;;;;5033661;28;19986;-63
2024/02/12 06:45:43;;;;;;;;;;;5.70;99.90;;;;;;5014290;28;19932;-63
2024/02/12 06:48:14;;;;;;;;;;;5.80;99.90;;;;;;5034841;28;20300;-63
2024/02/12 06:50:42;;;;;;;;;;;5.80;99.90;;;;;;5032745;28;19932;-63
2024/02/12 06:53:14;;;;;;;;;;;5.80;99.90;;;;;;5016631;28;19921;-63
2024/02/12 06:55:46;;;;;;;;;;;5.70;99.90;;;;;;5034446;28;20373;-63
2024/02/12 06:58:18;;;;;;;;;;;5.80;99.90;;;;;;5032362;28;19928;-63
2024/02/12 07:00:54;;;;;;;;;;;5.80;99.90;;;;;;5033913;28;19925;-63
2024/02/12 07:03:25;;;;;;;;;;;5.80;99.90;;;;;;4993422;28;19921;-63
2024/02/12 07:05:58;;;;;;;;;;;5.80;99.90;;;;;;5033975;28;19928;-63
2024/02/12 07:08:30;;;;;;;;;;;5.80;99.90;;;;;;5034185;28;19921;-63
2024/02/12 07:11:01;;;;;;;;;;;5.80;99.90;;;;;;5033889;28;19969;-63
2024/02/12 07:13:33;;;;;;;;;;;5.80;99.90;;;;;;5031859;28;20037;-63
2024/02/12 07:16:05;;;;;;;;;;;5.80;99.90;;;;;;5007188;28;20341;-63
2024/02/12 07:18:37;;;;;;;;;;;5.80;99.90;;;;;;5017425;28;20305;-63
2024/02/12 07:21:08;;;;;;;;;;;5.90;99.90;;;;;;5032551;28;19925;-64
2024/02/12 07:23:40;;;;;;;;;;;5.80;99.90;;;;;;5032856;28;19921;-64
2024/02/12 07:26:12;;;;;;;;;;;5.80;99.90;;;;;;5032422;28;19931;-64
2024/02/12 07:28:47;;;;;;;;;;;5.80;99.90;;;;;;5014769;28;20428;-64
2024/02/12 07:31:19;;;;;;;;;;;5.70;99.90;;;;;;4999432;28;19937;-64
2024/02/12 07:33:50;;;;;;;;;;;5.70;99.90;;;;;;5033193;28;20285;-64
2024/02/12 07:36:22;;;;;;;;;;;5.70;99.90;;;;;;5031173;28;19921;-64
2024/02/12 07:38:54;;;;;;;;;;;5.70;99.90;;;;;;5007295;28;19925;-64
2024/02/12 07:41:22;;;;;;;;;;;5.60;99.90;;;;;;5036062;28;19928;-65
2024/02/12 07:43:54;;;;;;;;;;;5.70;99.90;;;;;;5032633;28;19925;-66
2024/02/12 07:46:28;;;;;;;;;;;5.70;99.90;;;;;;5013943;28;19928;-64
2024/02/12 07:48:57;;;;;;;;;;;5.70;99.90;;;;;;5024906;28;19940;-64
2024/02/12 07:51:29;;;;;;;;;;;5.70;99.90;;;;;;5030354;28;19932;-64
2024/02/12 07:54:01;;;;;;;;;;;5.70;99.90;;;;;;5033758;28;20301;-64
2024/02/12 07:56:33;;;;;;;;;;;5.60;99.90;;;;;;5020991;28;19925;-64
2024/02/12 07:59:05;;;;;;;;;;;5.70;99.90;;;;;;5015329;28;19925;-64
2024/02/12 08:01:36;;;;;;;;;;;5.60;99.90;;;;;;5032672;28;19921;-64
2024/02/12 08:04:03;;;;;;;;;;;5.70;99.90;;;;;;5014101;28;19925;-65
2024/02/12 08:06:35;;;;;;;;;;;5.70;99.90;;;;;;5017393;28;19928;-65
2024/02/12 08:09:10;;;;;;;;;;;5.70;99.90;;;;;;5012201;28;19920;-64
2024/02/12 08:11:43;;;;;;;;;;;5.70;99.90;;;;;;5026829;28;19932;-64
2024/02/12 08:14:15;;;;;;;;;;;5.70;99.90;;;;;;5001145;28;20327;-64
2024/02/12 08:16:46;;;;;;;;;;;5.70;99.90;;;;;;5010128;28;19928;-64
2024/02/12 08:19:13;;;;;;;;;;;5.70;99.90;;;;;;5033350;28;19975;-64
2024/02/12 08:21:45;;;;;;;;;;;5.70;99.90;;;;;;5031360;28;19995;-64
2024/02/12 08:24:17;;;;;;;;;;;5.70;99.90;;;;;;5032808;28;19931;-64
2024/02/12 08:26:49;;;;;;;;;;;5.70;99.90;;;;;;5024724;28;20018;-64
2024/02/12 08:29:23;;;;;;;;;;;5.70;99.90;;;;;;5022949;28;19924;-64
2024/02/12 08:31:54;;;;;;;;;;;5.70;99.90;;;;;;5032370;28;19921;-65
2024/02/12 08:34:26;;;;;;;;;;;5.80;99.90;;;;;;5016751;28;19925;-65
2024/02/12 08:36:53;;;;;;;;;;;5.80;99.90;;;;;;5000258;28;20457;-65
2024/02/12 08:39:21;;;;;;;;;;;5.90;99.90;;;;;;5032261;28;20468;-65
2024/02/12 08:41:53;;;;;;;;;;;5.90;99.90;;;;;;5032433;28;19951;-66
2024/02/12 08:44:26;;;;;;;;;;;5.90;99.90;;;;;;5011150;28;20063;-65
2024/02/12 08:46:53;;;;;;;;;;;5.90;99.90;;;;;;5017754;28;19925;-65
2024/02/12 08:49:20;;;;;;;;;;;5.90;99.90;;;;;;5030619;28;19925;-65
2024/02/12 08:51:48;;;;;;;;;;;6.00;99.90;;;;;;5027204;28;19925;-65
2024/02/12 08:54:22;;;;;;;;;;;6.10;99.90;;;;;;5029356;28;19929;-65
2024/02/12 08:56:54;;;;;;;;;;;6.10;99.90;;;;;;5029293;28;19931;-65
2024/02/12 08:59:26;;;;;;;;;;;6.20;99.90;;;;;;5012039;28;19924;-65
2024/02/12 09:01:58;;;;;;;;;;;6.30;99.90;;;;;;5004043;28;19995;-67
2024/02/12 09:04:30;;;;;;;;;;;6.30;99.90;;;;;;5029992;28;19924;-66
2024/02/12 09:07:02;;;;;;;;;;;6.40;99.90;;;;;;5006501;28;20019;-67
2024/02/12 09:09:28;;;;;;;;;;;6.40;99.90;;;;;;5024728;28;19925;-65
2024/02/12 09:12:01;;;;;;;;;;;6.40;99.90;;;;;;5009981;28;19926;-65
2024/02/12 09:14:35;;;;;;;;;;;6.50;99.90;;;;;;5029125;28;20313;-65
2024/02/12 09:17:06;;;;;;;;;;;6.60;99.90;;;;;;5027644;28;20011;-65
2024/02/12 09:19:38;;;;;;;;;;;6.60;99.90;;;;;;5015355;28;20321;-65
2024/02/12 09:22:10;;;;;;;;;;;6.70;99.90;;;;;;5029228;28;19925;-65
2024/02/12 09:24:39;;;;;;;;;;;6.80;99.90;;;;;;5033762;28;20031;-65
2024/02/12 09:27:11;;;;;;;;;;;6.80;99.90;;;;;;5030838;28;19921;-65
2024/02/12 09:29:45;;;;;;;;;;;6.80;99.90;;;;;;5008515;28;19925;-64
2024/02/12 09:32:17;;;;;;;;;;;6.90;99.90;;;;;;5032736;28;19928;-64
2024/02/12 09:34:49;;;;;;;;;;;7.00;99.90;;;;;;5025928;28;19948;-64
2024/02/12 09:37:21;;;;;;;;;;;7.20;99.90;;;;;;5025939;28;19941;-65
2024/02/12 09:39:47;;;;;;;;;;;7.20;99.90;;;;;;5030391;28;20377;-65
2024/02/12 09:42:21;;;;;;;;;;;7.20;99.90;;;;;;5031226;28;19928;-65
2024/02/12 09:44:55;;;;;;;;;;;7.20;99.90;;;;;;5030769;28;20012;-65
2024/02/12 09:47:27;;;;;;;;;;;7.30;99.90;;;;;;5031571;28;19927;-64
2024/02/12 09:49:58;;;;;;;;;;;7.30;99.90;;;;;;5031481;28;19925;-66
2024/02/12 09:52:28;;;;;;;;;;;7.40;99.90;;;;;;5030828;28;19928;-65
2024/02/12 09:55:02;;;;;;;;;;;7.50;99.90;;;;;;5030442;28;20435;-64
2024/02/12 09:57:30;;;;;;;;;;;7.70;99.90;;;;;;5031912;28;19925;-64
2024/02/12 10:00:07;;;;;;;;;;;7.80;99.90;;;;;;5031894;28;20375;-66
2024/02/12 10:02:40;;;;;;;;;;;7.80;99.90;;;;;;5029085;28;19925;-64
2024/02/12 10:05:20;;;;;;;;;;;7.80;99.90;;;;;;5008902;28;19928;-65
2024/02/12 10:07:51;;;;;;;;;;;7.90;99.90;;;;;;4995863;28;19960;-64
2024/02/12 10:10:24;;;;;;;;;;;7.80;99.90;;;;;;5029702;28;19929;-65
2024/02/12 10:12:55;;;;;;;;;;;7.80;99.90;;;;;;5031523;28;19928;-64
2024/02/12 10:15:29;;;;;;;;;;;7.80;99.90;;;;;;5032578;28;19928;-64
2024/02/12 10:17:55;;;;;;;;;;;7.80;99.90;;;;;;5013499;28;19921;-64
2024/02/12 10:20:27;;;;;;;;;;;7.80;99.90;;;;;;5030388;28;19928;-64
2024/02/12 10:22:55;;;;;;;;;;;7.80;99.90;;;;;;5031087;28;19928;-64
2024/02/12 10:25:28;;;;;;;;;;;7.90;99.90;;;;;;5010319;28;19929;-65
2024/02/12 10:27:55;;;;;;;;;;;7.90;99.90;;;;;;5027944;28;19921;-65
2024/02/12 10:30:27;;;;;;;;;;;7.90;99.90;;;;;;5026239;28;20691;-64
2024/02/12 10:33:04;;;;;;;;;;;7.90;99.90;;;;;;5026993;28;19944;-64
2024/02/12 10:35:38;;;;;;;;;;;7.90;99.90;;;;;;5023334;28;19925;-65
2024/02/12 10:38:06;;;;;;;;;;;7.80;99.90;;;;;;5009487;28;19928;-65
2024/02/12 10:40:45;;;;;;;;;;;7.80;99.90;;;;;;5023979;28;19927;-64
2024/02/12 10:43:21;;;;;;;;;;;7.80;99.90;;;;;;5007548;28;19925;-65
2024/02/12 10:45:53;;;;;;;;;;;7.80;99.90;;;;;;5025695;28;19921;-64
2024/02/12 10:48:25;;;;;;;;;;;7.70;99.90;;;;;;5009765;28;19933;-64
2024/02/12 10:50:58;;;;;;;;;;;7.70;99.90;;;;;;5029025;28;19921;-64
2024/02/12 10:53:28;;;;;;;;;;;7.80;99.90;;;;;;5027837;28;19921;-63
2024/02/12 10:56:00;;;;;;;;;;;7.70;99.90;;;;;;5011527;28;20011;-63
2024/02/12 10:58:32;;;;;;;;;;;7.80;99.90;;;;;;5029080;28;20011;-63
2024/02/12 11:01:05;;;;;;;;;;;7.80;99.90;;;;;;5028562;28;19996;-64
2024/02/12 11:03:38;;;;;;;;;;;7.90;99.90;;;;;;5011253;28;20412;-63
2024/02/12 11:06:14;;;;;;;;;;;7.90;99.90;;;;;;5027282;28;19921;-65
2024/02/12 11:08:49;;;;;;;;;;;7.90;99.90;;;;;;5027998;28;19925;-64
2024/02/12 11:11:28;;;;;;;;;;;8.00;99.90;;;;;;5024882;28;19921;-67
2024/02/12 11:14:01;;;;;;;;;;;8.10;99.90;;;;;;5024673;28;19925;-64
2024/02/12 11:16:37;;;;;;;;;;;8.20;99.90;;;;;;5028535;28;19940;-64
2024/02/12 11:19:13;;;;;;;;;;;8.30;99.90;;;;;;5027663;28;20565;-64
2024/02/12 11:21:52;;;;;;;;;;;8.30;99.90;;;;;;5027373;28;20297;-64
2024/02/12 11:24:24;;;;;;;;;;;8.40;99.90;;;;;;5033656;28;19971;-65
2024/02/12 11:26:59;;;;;;;;;;;8.40;99.90;;;;;;5033136;28;20397;-64
2024/02/12 11:29:31;;;;;;;;;;;8.50;99.90;;;;;;5036163;28;19943;-65
2024/02/12 11:32:04;;;;;;;;;;;8.60;99.90;;;;;;5029595;28;19920;-64
2024/02/12 11:34:36;;;;;;;;;;;8.60;99.90;;;;;;5030625;28;19984;-66
2024/02/12 11:37:08;;;;;;;;;;;8.70;99.90;;;;;;5013274;28;20341;-64
2024/02/12 11:39:40;;;;;;;;;;;8.70;99.90;;;;;;5031283;28;19968;-64
2024/02/12 11:42:13;;;;;;;;;;;8.80;99.90;;;;;;5033061;28;19921;-64
2024/02/12 11:44:45;;;;;;;;;;;8.80;99.90;;;;;;5030999;28;19929;-63
2024/02/12 11:47:11;;;;;;;;;;;8.80;99.90;;;;;;5035440;28;19931;-63
2024/02/12 11:49:45;;;;;;;;;;;8.70;99.90;;;;;;5033913;28;20036;-63
2024/02/12 11:52:17;;;;;;;;;;;8.70;99.90;;;;;;5029630;28;19924;-63
2024/02/12 11:54:49;;;;;;;;;;;8.80;99.90;;;;;;5006708;28;19921;-63
2024/02/12 11:57:23;;;;;;;;;;;8.80;99.90;;;;;;5026194;28;19921;-63
2024/02/12 11:59:57;;;;;;;;;;;8.90;99.90;;;;;;5032312;28;19921;-63
2024/02/12 12:02:37;;;;;;;;;;;8.90;99.90;;;;;;5031678;28;20351;-63
2024/02/12 12:05:10;;;;;;;;;;;8.90;99.90;;;;;;5031433;28;20385;-63
2024/02/12 12:07:42;;;;;;;;;;;9.00;99.90;;;;;;5029597;28;20015;-63
2024/02/12 12:10:20;;;;;;;;;;;9.00;99.90;;;;;;5030882;28;19925;-63
2024/02/12 12:12:53;;;;;;;;;;;9.10;99.90;;;;;;5031957;28;19943;-63
2024/02/12 12:15:25;;;;;;;;;;;9.00;99.90;;;;;;5026264;28;19921;-63
2024/02/12 12:18:00;;;;;;;;;;;9.00;99.90;;;;;;5033222;28;19925;-63
2024/02/12 12:20:29;;;;;;;;;;;9.00;99.90;;;;;;5032730;28;20035;-63
2024/02/12 12:23:03;;;;;;;;;;;8.90;99.90;;;;;;5031480;28;19921;-63
2024/02/12 12:25:38;;;;;;;;;;;8.90;99.90;;;;;;5031665;28;20019;-63
2024/02/12 12:28:08;;;;;;;;;;;9.00;99.90;;;;;;5026201;28;20040;-64
2024/02/12 12:30:40;;;;;;;;;;;9.10;99.90;;;;;;5032813;28;20432;-64
2024/02/12 12:33:12;;;;;;;;;;;9.10;99.90;;;;;;5027642;28;19929;-63
2024/02/12 12:35:43;;;;;;;;;;;9.10;99.90;;;;;;5031966;28;20407;-64
2024/02/12 12:38:15;;;;;;;;;;;9.00;99.90;;;;;;5015974;28;19925;-63
2024/02/12 12:40:47;;;;;;;;;;;9.10;99.90;;;;;;5031032;28;19921;-63
2024/02/12 12:43:20;;;;;;;;;;;9.00;99.90;;;;;;5030636;28;20393;-63
2024/02/12 12:45:52;;;;;;;;;;;9.00;99.90;;;;;;5029816;28;19956;-63
2024/02/12 12:48:24;;;;;;;;;;;8.90;99.90;;;;;;5030929;28;19925;-63
2024/02/12 12:50:55;;;;;;;;;;;8.80;99.90;;;;;;5032023;28;20341;-63
2024/02/12 12:53:28;;;;;;;;;;;8.70;99.90;;;;;;5026224;28;20019;-63
2024/02/12 12:56:00;;;;;;;;;;;8.50;99.90;;;;;;5030892;28;19963;-63
2024/02/12 12:58:33;;;;;;;;;;;8.50;99.90;;;;;;5021810;28;19994;-63
2024/02/12 13:01:05;;;;;;;;;;;8.50;99.90;;;;;;5031034;28;20016;-63
2024/02/12 13:03:37;;;;;;;;;;;8.50;99.90;;;;;;5010001;28;19948;-63
2024/02/12 13:06:10;;;;;;;;;;;8.50;99.90;;;;;;5027592;28;19984;-63
2024/02/12 13:08:45;;;;;;;;;;;8.40;99.90;;;;;;5012264;28;19921;-63
2024/02/12 13:11:17;;;;;;;;;;;8.40;99.90;;;;;;5006490;28;19928;-63
2024/02/12 13:13:43;;;;;;;;;;;8.30;99.90;;;;;;5007079;28;19943;-63
2024/02/12 13:16:15;;;;;;;;;;;8.20;99.90;;;;;;5029943;28;20025;-64
2024/02/12 13:18:42;;;;;;;;;;;8.10;99.90;;;;;;5029868;28;20341;-64
2024/02/12 13:21:14;;;;;;;;;;;8.00;99.90;;;;;;5011133;28;20738;-64
2024/02/12 13:23:45;;;;;;;;;;;7.70;99.90;;;;;;5031544;28;19921;-64
2024/02/12 13:26:18;;;;;;;;;;;7.50;99.90;;;;;;5011652;28;20451;-64
2024/02/12 13:28:51;;;;;;;;;;;7.30;99.90;;;;;;5010232;28;19921;-63
2024/02/12 13:31:23;;;;;;;;;;;7.00;99.90;;;;;;5029252;28;19929;-68
2024/02/12 13:33:53;;;;;;;;;;;6.80;99.90;;;;;;5030117;28;20008;-64
2024/02/12 13:36:21;;;;;;;;;;;6.70;99.90;;;;;;5030181;28;19968;-64
2024/02/12 13:38:53;;;;;;;;;;;6.70;99.90;;;;;;5031299;28;19961;-64
2024/02/12 13:41:25;;;;;;;;;;;6.60;99.90;;;;;;5030599;28;20012;-64
2024/02/12 13:43:52;;;;;;;;;;;6.60;99.90;;;;;;5031389;28;19931;-64
2024/02/12 13:46:24;;;;;;;;;;;6.60;99.90;;;;;;5016343;28;20391;-64
2024/02/12 13:48:56;;;;;;;;;;;6.70;99.90;;;;;;5025300;28;20309;-64
2024/02/12 13:51:28;;;;;;;;;;;6.70;99.90;;;;;;5028749;28;19921;-64
2024/02/12 13:54:00;;;;;;;;;;;6.70;99.90;;;;;;5030070;28;19925;-64
2024/02/12 13:56:33;;;;;;;;;;;6.80;99.90;;;;;;5029270;28;19936;-64
2024/02/12 13:59:04;;;;;;;;;;;7.00;99.90;;;;;;5012064;28;19925;-64
2024/02/12 14:01:37;;;;;;;;;;;7.20;99.90;;;;;;5025791;28;20024;-64
2024/02/12 14:04:12;;;;;;;;;;;7.40;99.90;;;;;;5028152;28;19921;-64
2024/02/12 14:06:43;;;;;;;;;;;7.50;99.90;;;;;;5030213;28;19968;-64
2024/02/12 14:09:20;;;;;;;;;;;7.60;99.90;;;;;;5021778;28;19947;-64
2024/02/12 14:11:47;;;;;;;;;;;7.60;99.90;;;;;;5028270;28;19975;-64
2024/02/12 14:14:19;;;;;;;;;;;7.60;99.90;;;;;;5006311;28;19921;-64
2024/02/12 14:16:46;;;;;;;;;;;7.60;99.90;;;;;;5026624;28;19961;-64
2024/02/12 14:19:18;;;;;;;;;;;7.60;99.90;;;;;;5013510;28;19932;-64
2024/02/12 14:21:49;;;;;;;;;;;7.70;99.90;;;;;;5011544;28;19928;-64
2024/02/12 14:24:18;;;;;;;;;;;7.80;99.90;;;;;;5030690;28;19960;-64
2024/02/12 14:26:50;;;;;;;;;;;7.90;99.90;;;;;;5025030;28;19927;-64
2024/02/12 14:29:22;;;;;;;;;;;7.90;99.90;;;;;;5029965;28;19925;-64
2024/02/12 14:31:53;;;;;;;;;;;7.80;99.90;;;;;;5031003;28;20011;-64
2024/02/12 14:34:25;;;;;;;;;;;7.80;99.90;;;;;;5028866;28;20411;-64
2024/02/12 14:36:52;;;;;;;;;;;7.70;99.90;;;;;;5025543;28;19921;-64
2024/02/12 14:39:24;;;;;;;;;;;7.60;99.90;;;;;;5031385;28;19925;-64
2024/02/12 14:41:56;;;;;;;;;;;7.60;99.90;;;;;;5021198;28;20023;-64
2024/02/12 14:44:27;;;;;;;;;;;7.60;99.90;;;;;;5020349;28;19920;-64
2024/02/12 14:46:59;;;;;;;;;;;7.60;99.90;;;;;;5029020;28;19921;-64
2024/02/12 14:49:31;;;;;;;;;;;7.60;99.90;;;;;;5001573;28;19924;-66
2024/02/12 14:52:05;;;;;;;;;;;7.60;99.90;;;;;;5031757;28;19925;-64
2024/02/12 14:54:37;;;;;;;;;;;7.60;99.90;;;;;;5010301;28;19921;-64
2024/02/12 14:57:09;;;;;;;;;;;7.70;99.90;;;;;;5029870;28;19921;-64
2024/02/12 14:59:41;;;;;;;;;;;7.70;99.90;;;;;;5030594;28;19925;-64
2024/02/12 15:02:16;;;;;;;;;;;7.70;99.90;;;;;;5031468;28;19975;-64
2024/02/12 15:04:47;;;;;;;;;;;7.70;99.90;;;;;;5032775;28;19925;-63
2024/02/12 15:07:19;;;;;;;;;;;7.80;99.90;;;;;;5011587;28;19925;-64
2024/02/12 15:09:51;;;;;;;;;;;7.90;99.90;;;;;;5029042;28;19921;-64